createdAt,value
2023-05-21T00:00:21.097Z,100717.59
2023-05-21T00:02:49.571Z,100717.34
2023-05-21T00:05:18.517Z,100715.81
2023-05-21T00:07:48.333Z,100718.63
2023-05-21T00:10:16.918Z,100719.75
2023-05-21T00:12:46.386Z,100712.81
2023-05-21T00:15:14.609Z,100716.50
2023-05-21T00:17:43.542Z,100712.97
2023-05-21T00:20:13.036Z,100707.00
2023-05-21T00:22:42.355Z,100706.75
2023-05-21T00:25:13.277Z,100704.47
2023-05-21T00:27:41.451Z,100702.09
2023-05-21T00:30:10.139Z,100707.59
2023-05-21T00:32:38.731Z,100702.53
2023-05-21T00:35:08.125Z,100701.78
2023-05-21T00:37:36.232Z,100698.41
2023-05-21T00:40:09.205Z,100696.00
2023-05-21T00:42:40.636Z,100689.91
2023-05-21T00:45:10.103Z,100690.16
2023-05-21T00:47:39.219Z,100695.13
2023-05-21T00:50:08.763Z,100691.72
2023-05-21T00:52:42.267Z,100687.47
2023-05-21T00:55:11.805Z,100693.28
2023-05-21T00:57:42.607Z,100689.03
2023-05-21T01:00:12.165Z,100689.44
2023-05-21T01:02:40.709Z,100689.56
2023-05-21T01:05:09.620Z,100689.72
2023-05-21T01:07:41.518Z,100693.66
2023-05-21T01:10:12.463Z,100679.53
2023-05-21T01:12:45.679Z,100677.81
2023-05-21T01:15:15.215Z,100670.75
2023-05-21T01:17:46.186Z,100677.81
2023-05-21T01:20:18.182Z,100686.88
2023-05-21T01:22:53.079Z,100678.97
2023-05-21T01:25:21.698Z,100682.78
2023-05-21T01:27:49.976Z,100676.41
2023-05-21T01:30:20.070Z,100681.78
2023-05-21T01:32:53.650Z,100663.97
2023-05-21T01:35:26.223Z,100671.31
2023-05-21T01:38:02.500Z,100667.75
2023-05-21T01:40:35.844Z,100664.22
2023-05-21T01:43:06.125Z,100670.59
2023-05-21T01:45:37.552Z,100667.06
2023-05-21T01:48:08.237Z,100664.53
2023-05-21T01:50:36.998Z,100659.16
2023-05-21T01:53:06.838Z,100665.50
2023-05-21T01:55:39.545Z,100663.97
2023-05-21T01:58:08.725Z,100658.59
2023-05-21T02:00:37.583Z,100659.44
2023-05-21T02:03:06.079Z,100659.44
2023-05-21T02:05:34.464Z,100652.22
2023-05-21T02:08:02.933Z,100670.03
2023-05-21T02:10:32.792Z,100660.41
2023-05-21T02:13:01.090Z,100657.75
2023-05-21T02:15:30.430Z,100656.03
2023-05-21T02:17:58.927Z,100652.47
2023-05-21T02:20:27.795Z,100658.00
2023-05-21T02:22:55.922Z,100655.31
2023-05-21T02:25:24.210Z,100648.25
2023-05-21T02:27:56.903Z,100648.94
2023-05-21T02:30:25.264Z,100647.25
2023-05-21T02:32:57.499Z,100650.06
2023-05-21T02:35:26.072Z,100646.53
2023-05-21T02:37:58.984Z,100645.69
2023-05-21T02:40:27.316Z,100649.22
2023-05-21T02:42:56.998Z,100647.69
2023-05-21T02:45:25.748Z,100649.22
2023-05-21T02:47:53.916Z,100652.31
2023-05-21T02:50:23.352Z,100654.16
2023-05-21T02:52:54.652Z,100660.25
2023-05-21T02:55:23.516Z,100651.34
2023-05-21T02:57:51.957Z,100653.56
2023-05-21T03:00:21.836Z,100655.25
2023-05-21T03:02:50.843Z,100657.09
2023-05-21T03:05:19.079Z,100652.56
2023-05-21T03:07:47.224Z,100656.81
2023-05-21T03:10:16.716Z,100660.22
2023-05-21T03:12:44.992Z,100658.53
2023-05-21T03:15:14.999Z,100665.59
2023-05-21T03:17:44.931Z,100661.91
2023-05-21T03:20:16.550Z,100660.22
2023-05-21T03:22:45.570Z,100661.19
2023-05-21T03:25:13.849Z,100656.69
2023-05-21T03:27:42.304Z,100662.06
2023-05-21T03:30:13.254Z,100654.28
2023-05-21T03:32:46.064Z,100653.13
2023-05-21T03:35:14.641Z,100648.00
2023-05-21T03:37:42.863Z,100659.69
2023-05-21T03:40:12.008Z,100653.38
2023-05-21T03:42:40.446Z,100657.50
2023-05-21T03:45:09.547Z,100659.91
2023-05-21T03:47:38.164Z,100652.69
2023-05-21T03:50:10.565Z,100657.06
2023-05-21T03:52:38.782Z,100674.03
2023-05-21T03:55:07.911Z,100661.34
2023-05-21T03:57:36.078Z,100670.97
2023-05-21T04:00:05.040Z,100669.25
2023-05-21T04:02:44.097Z,100666.28
2023-05-21T04:05:14.714Z,100663.31
2023-05-21T04:07:42.983Z,100659.25
2023-05-21T04:10:11.510Z,100654.59
2023-05-21T04:12:39.930Z,100657.97
2023-05-21T04:15:09.277Z,100664.19
2023-05-21T04:17:37.525Z,100662.78
2023-05-21T04:20:07.167Z,100665.00
2023-05-21T04:22:36.822Z,100662.19
2023-05-21T04:25:05.414Z,100663.03
2023-05-21T04:27:35.542Z,100662.19
2023-05-21T04:30:04.272Z,100665.59
2023-05-21T04:32:35.005Z,100669.12
2023-05-21T04:35:04.338Z,100664.47
2023-05-21T04:37:35.156Z,100667.31
2023-05-21T04:40:06.632Z,100673.25
2023-05-21T04:42:36.424Z,100662.53
2023-05-21T04:45:05.840Z,100670.19
2023-05-21T04:47:35.506Z,100666.22
2023-05-21T04:50:05.200Z,100676.12
2023-05-21T04:52:34.818Z,100668.78
2023-05-21T04:55:03.125Z,100664.09
2023-05-21T04:57:32.724Z,100660.00
2023-05-21T05:00:02.025Z,100659.56
2023-05-21T05:02:33.281Z,100664.25
2023-05-21T05:05:01.671Z,100663.72
2023-05-21T05:07:29.687Z,100666.28
2023-05-21T05:09:57.974Z,100663.44
2023-05-21T05:12:26.366Z,100663.72
2023-05-21T05:14:55.931Z,100662.12
2023-05-21T05:17:24.676Z,100662.00
2023-05-21T05:19:53.236Z,100655.59
2023-05-21T05:22:21.546Z,100652.59
2023-05-21T05:24:49.719Z,100655.25
2023-05-21T05:27:18.909Z,100655.66
2023-05-21T05:29:46.995Z,100658.47
2023-05-21T05:32:17.334Z,100659.62
2023-05-21T05:34:49.019Z,100653.34
2023-05-21T05:37:17.350Z,100653.03
2023-05-21T05:39:45.736Z,100659.38
2023-05-21T05:42:14.916Z,100648.88
2023-05-21T05:44:43.011Z,100654.22
2023-05-21T05:47:11.394Z,100654.16
2023-05-21T05:49:40.872Z,100652.53
2023-05-21T05:52:09.002Z,100646.22
2023-05-21T05:54:37.388Z,100655.78
2023-05-21T05:57:06.768Z,100651.56
2023-05-21T05:59:36.189Z,100647.84
2023-05-21T06:02:05.118Z,100651.22
2023-05-21T06:04:33.468Z,100646.91
2023-05-21T06:07:03.091Z,100647.59
2023-05-21T06:09:31.166Z,100648.44
2023-05-21T06:11:59.574Z,100641.66
2023-05-21T06:14:27.737Z,100643.66
2023-05-21T06:16:55.847Z,100641.31
2023-05-21T06:19:24.816Z,100644.94
2023-05-21T06:21:53.187Z,100640.06
2023-05-21T06:24:22.584Z,100640.13
2023-05-21T06:26:51.434Z,100642.25
2023-05-21T06:29:19.784Z,100646.56
2023-05-21T06:31:48.649Z,100644.63
2023-05-21T06:34:17.545Z,100640.47
2023-05-21T06:36:45.887Z,100642.72
2023-05-21T06:39:14.057Z,100642.09
2023-05-21T06:41:44.692Z,100639.91
2023-05-21T06:44:21.087Z,100637.56
2023-05-21T06:46:51.721Z,100643.34
2023-05-21T06:49:20.914Z,100647.41
2023-05-21T06:51:52.524Z,100645.03
2023-05-21T06:54:21.670Z,100643.66
2023-05-21T06:56:52.902Z,100644.66
2023-05-21T06:59:21.688Z,100641.91
2023-05-21T07:01:49.855Z,100641.50
2023-05-21T07:04:18.112Z,100649.50
2023-05-21T07:06:46.873Z,100638.62
2023-05-21T07:09:15.595Z,100640.22
2023-05-21T07:11:44.419Z,100642.16
2023-05-21T07:14:15.607Z,100644.41
2023-05-21T07:16:44.073Z,100638.50
2023-05-21T07:19:12.788Z,100643.97
2023-05-21T07:21:41.539Z,100643.56
2023-05-21T07:24:09.812Z,100644.66
2023-05-21T07:26:39.299Z,100645.66
2023-05-21T07:29:07.952Z,100651.69
2023-05-21T07:31:37.693Z,100651.00
2023-05-21T07:34:06.872Z,100642.84
2023-05-21T07:36:42.832Z,100647.72
2023-05-21T07:39:13.128Z,100633.97
2023-05-21T07:41:42.417Z,100634.16
2023-05-21T07:44:13.019Z,100628.97
2023-05-21T07:46:43.019Z,100634.94
2023-05-21T07:49:16.761Z,100624.91
2023-05-21T07:51:45.957Z,100630.16
2023-05-21T07:54:14.764Z,100634.53
2023-05-21T07:56:43.052Z,100624.16
2023-05-21T07:59:14.882Z,100618.81
2023-05-21T08:01:47.202Z,100620.19
2023-05-21T08:04:15.768Z,100612.09
2023-05-21T08:06:44.397Z,100620.78
2023-05-21T08:09:12.682Z,100611.53
2023-05-21T08:11:42.287Z,100612.00
2023-05-21T08:14:10.344Z,100612.38
2023-05-21T08:16:39.496Z,100610.97
2023-05-21T08:19:09.526Z,100617.31
2023-05-21T08:21:37.739Z,100615.03
2023-05-21T08:24:06.697Z,100611.44
2023-05-21T08:26:35.736Z,100612.16
2023-05-21T08:29:04.210Z,100616.37
2023-05-21T08:31:32.530Z,100613.87
2023-05-21T08:34:01.228Z,100607.75
2023-05-21T08:36:34.813Z,100607.50
2023-05-21T08:39:03.518Z,100606.00
2023-05-21T08:41:37.831Z,100616.09
2023-05-21T08:44:12.405Z,100614.59
2023-05-21T08:46:42.854Z,100610.16
2023-05-21T08:49:14.036Z,100611.75
2023-05-21T08:51:44.524Z,100601.78
2023-05-21T08:54:14.183Z,100608.50
2023-05-21T08:56:47.229Z,100606.09
2023-05-21T08:59:19.391Z,100597.38
2023-05-21T09:01:51.060Z,100597.00
2023-05-21T09:04:21.617Z,100596.59
2023-05-21T09:06:52.749Z,100597.41
2023-05-21T09:09:29.308Z,100596.22
2023-05-21T09:11:57.444Z,100591.06
2023-05-21T09:14:27.448Z,100595.97
2023-05-21T09:16:56.369Z,100585.56
2023-05-21T09:19:25.363Z,100590.22
2023-05-21T09:21:55.500Z,100589.09
2023-05-21T09:24:24.213Z,100585.47
2023-05-21T09:26:52.836Z,100588.94
2023-05-21T09:29:21.829Z,100587.38
2023-05-21T09:31:51.186Z,100592.00
2023-05-21T09:34:19.420Z,100588.31
2023-05-21T09:36:50.128Z,100585.78
2023-05-21T09:39:30.613Z,100582.63
2023-05-21T09:42:00.949Z,100580.78
2023-05-21T09:44:29.297Z,100585.38
2023-05-21T09:46:59.536Z,100573.03
2023-05-21T09:49:28.548Z,100579.84
2023-05-21T09:51:57.166Z,100579.91
2023-05-21T09:54:25.952Z,100572.19
2023-05-21T09:56:55.685Z,100573.03
2023-05-21T09:59:24.174Z,100579.13
2023-05-21T10:01:53.307Z,100570.50
2023-05-21T10:04:22.889Z,100575.41
2023-05-21T10:06:52.127Z,100570.31
2023-05-21T10:09:21.702Z,100569.31
2023-05-21T10:11:53.231Z,100570.22
2023-05-21T10:14:26.390Z,100560.66
2023-05-21T10:16:55.808Z,100563.22
2023-05-21T10:19:28.711Z,100560.09
2023-05-21T10:21:57.818Z,100558.50
2023-05-21T10:24:26.816Z,100556.63
2023-05-21T10:26:55.483Z,100561.84
2023-05-21T10:29:26.755Z,100553.75
2023-05-21T10:31:54.984Z,100551.59
2023-05-21T10:34:24.948Z,100547.66
2023-05-21T10:36:55.387Z,100549.59
2023-05-21T10:39:25.405Z,100542.37
2023-05-21T10:42:02.767Z,100536.63
2023-05-21T10:44:44.622Z,100537.75
2023-05-21T10:47:43.400Z,100545.28
2023-05-21T10:50:38.670Z,100539.19
2023-05-21T10:53:15.446Z,100537.19
2023-05-21T10:55:58.510Z,100532.28
2023-05-21T10:58:43.893Z,100539.09
2023-05-21T11:01:15.202Z,100528.63
2023-05-21T11:03:44.022Z,100525.16
2023-05-21T11:06:12.554Z,100531.66
2023-05-21T11:08:49.107Z,100536.53
2023-05-21T11:11:46.233Z,100526.16
2023-05-21T11:14:32.823Z,100528.03
2023-05-21T11:17:03.666Z,100529.16
2023-05-21T11:19:40.120Z,100530.84
2023-05-21T11:22:10.715Z,100520.66
2023-05-21T11:24:40.603Z,100520.69
2023-05-21T11:27:09.913Z,100519.91
2023-05-21T11:29:46.020Z,100526.19
2023-05-21T11:32:17.583Z,100519.22
2023-05-21T11:34:49.587Z,100515.91
2023-05-21T11:37:27.849Z,100513.97
2023-05-21T11:39:56.690Z,100520.66
2023-05-21T11:42:33.670Z,100512.72
2023-05-21T11:45:04.027Z,100510.47
2023-05-21T11:47:35.031Z,100512.97
2023-05-21T11:50:05.298Z,100516.81
2023-05-21T11:52:33.811Z,100502.63
2023-05-21T11:55:01.978Z,100512.63
2023-05-21T11:57:31.948Z,100506.62
2023-05-21T12:00:09.131Z,100510.31
2023-05-21T12:02:46.091Z,100507.38
2023-05-21T12:05:17.532Z,100510.84
2023-05-21T12:07:50.114Z,100501.87
2023-05-21T12:10:23.237Z,100514.63
2023-05-21T12:12:56.508Z,100499.78
2023-05-21T12:15:28.452Z,100503.53
2023-05-21T12:17:58.683Z,100493.47
2023-05-21T12:20:28.896Z,100504.44
2023-05-21T12:22:59.094Z,100492.34
2023-05-21T12:25:28.499Z,100499.66
2023-05-21T12:27:58.828Z,100495.19
2023-05-21T12:30:28.065Z,100496.09
2023-05-21T12:33:02.177Z,100495.72
2023-05-21T12:35:31.688Z,100495.44
2023-05-21T12:38:02.056Z,100494.59
2023-05-21T12:40:37.276Z,100491.41
2023-05-21T12:43:06.311Z,100486.06
2023-05-21T12:45:36.653Z,100492.97
2023-05-21T12:48:06.536Z,100489.75
2023-05-21T12:50:35.749Z,100489.06
2023-05-21T12:53:04.248Z,100489.50
2023-05-21T12:55:33.006Z,100487.13
2023-05-21T12:58:04.295Z,100494.56
2023-05-21T13:00:33.559Z,100495.41
2023-05-21T13:03:02.197Z,100489.56
2023-05-21T13:05:31.993Z,100492.56
2023-05-21T13:08:03.815Z,100488.66
2023-05-21T13:10:32.320Z,100488.41
2023-05-21T13:13:00.456Z,100491.28
2023-05-21T13:15:29.165Z,100489.50
2023-05-21T13:17:59.058Z,100478.34
2023-05-21T13:20:28.036Z,100473.44
2023-05-21T13:22:58.003Z,100469.19
2023-05-21T13:25:29.315Z,100474.94
2023-05-21T13:27:58.980Z,100468.03
2023-05-21T13:30:27.503Z,100474.03
2023-05-21T13:32:56.166Z,100473.47
2023-05-21T13:35:24.416Z,100472.56
2023-05-21T13:37:52.744Z,100472.66
2023-05-21T13:40:23.037Z,100466.31
2023-05-21T13:42:51.631Z,100466.94
2023-05-21T13:45:21.485Z,100466.38
2023-05-21T13:47:49.824Z,100462.91
2023-05-21T13:50:18.057Z,100465.47
2023-05-21T13:52:49.196Z,100462.84
2023-05-21T13:55:22.627Z,100461.28
2023-05-21T13:57:51.017Z,100458.34
2023-05-21T14:00:19.056Z,100454.69
2023-05-21T14:02:47.616Z,100456.63
2023-05-21T14:05:15.774Z,100452.12
2023-05-21T14:07:43.965Z,100453.66
2023-05-21T14:10:13.358Z,100441.28
2023-05-21T14:12:42.942Z,100445.72
2023-05-21T14:15:12.015Z,100444.63
2023-05-21T14:17:42.458Z,100451.72
2023-05-21T14:20:11.279Z,100445.50
2023-05-21T14:22:39.788Z,100445.94
2023-05-21T14:25:08.608Z,100446.03
2023-05-21T14:27:38.421Z,100450.63
2023-05-21T14:30:09.477Z,100451.25
2023-05-21T14:32:37.840Z,100448.84
2023-05-21T14:35:06.753Z,100449.09
2023-05-21T14:37:35.012Z,100454.09
2023-05-21T14:40:05.573Z,100443.19
2023-05-21T14:42:33.810Z,100446.41
2023-05-21T14:45:17.442Z,100445.84
2023-05-21T14:47:48.887Z,100449.84
2023-05-21T14:50:19.810Z,100442.00
2023-05-21T14:52:48.231Z,100440.16
2023-05-21T14:55:25.383Z,100445.75
2023-05-21T14:57:54.173Z,100436.09
2023-05-21T15:00:22.695Z,100441.47
2023-05-21T15:02:57.335Z,100443.41
2023-05-21T15:05:28.194Z,100442.00
2023-05-21T15:07:56.887Z,100435.91
2023-05-21T15:10:25.278Z,100436.22
2023-05-21T15:12:54.073Z,100429.81
2023-05-21T15:15:32.886Z,100433.59
2023-05-21T15:18:03.865Z,100430.88
2023-05-21T15:20:41.365Z,100429.69
2023-05-21T15:23:16.964Z,100429.97
2023-05-21T15:25:46.317Z,100417.47
2023-05-21T15:28:14.844Z,100418.34
2023-05-21T15:30:42.993Z,100421.88
2023-05-21T15:33:12.501Z,100417.69
2023-05-21T15:35:41.248Z,100415.31
2023-05-21T15:38:09.704Z,100417.78
2023-05-21T15:40:41.301Z,100421.31
2023-05-21T15:43:09.955Z,100422.78
2023-05-21T15:45:39.019Z,100424.13
2023-05-21T15:48:09.979Z,100419.00
2023-05-21T15:50:40.079Z,100424.31
2023-05-21T15:53:24.345Z,100426.72
2023-05-21T15:55:55.473Z,100420.03
2023-05-21T15:58:24.176Z,100416.78
2023-05-21T16:00:52.741Z,100425.91
2023-05-21T16:03:21.285Z,100419.78
2023-05-21T16:05:50.951Z,100420.72
2023-05-21T16:08:19.247Z,100422.91
2023-05-21T16:10:47.751Z,100420.22
2023-05-21T16:13:15.992Z,100421.50
2023-05-21T16:15:44.098Z,100421.19
2023-05-21T16:18:12.472Z,100422.31
2023-05-21T16:20:42.107Z,100419.56
2023-05-21T16:23:12.917Z,100420.56
2023-05-21T16:25:42.190Z,100421.78
2023-05-21T16:28:12.264Z,100427.97
2023-05-21T16:30:40.810Z,100421.66
2023-05-21T16:33:09.361Z,100417.34
2023-05-21T16:35:37.698Z,100420.69
2023-05-21T16:38:06.113Z,100420.47
2023-05-21T16:40:35.977Z,100419.78
2023-05-21T16:43:04.155Z,100418.16
2023-05-21T16:45:39.733Z,100414.44
2023-05-21T16:48:08.815Z,100410.41
2023-05-21T16:50:36.968Z,100405.69
2023-05-21T16:53:55.029Z,100404.25
2023-05-21T16:56:27.212Z,100406.09
2023-05-21T16:58:55.458Z,100414.50
2023-05-21T17:01:24.170Z,100398.59
2023-05-21T17:03:52.655Z,100402.53
2023-05-21T17:09:47.992Z,100394.31
2023-05-21T17:12:25.981Z,100394.78
2023-05-21T17:14:55.491Z,100398.56
2023-05-21T17:17:23.956Z,100399.97
2023-05-21T17:19:52.230Z,100406.59
2023-05-21T17:22:20.668Z,100411.06
2023-05-21T17:24:49.333Z,100408.19
2023-05-21T17:27:21.469Z,100417.19
2023-05-21T17:29:51.073Z,100417.03
2023-05-21T17:32:20.900Z,100413.84
2023-05-21T17:34:49.470Z,100407.81
2023-05-21T17:37:17.965Z,100406.41
2023-05-21T17:39:46.237Z,100416.59
2023-05-21T17:42:14.429Z,100415.22
2023-05-21T17:44:44.063Z,100416.56
2023-05-21T17:47:12.209Z,100414.59
2023-05-21T17:49:40.312Z,100418.03
2023-05-21T17:52:08.693Z,100411.81
2023-05-21T17:54:36.820Z,100403.03
2023-05-21T17:57:05.175Z,100414.88
2023-05-21T17:59:33.627Z,100407.78
2023-05-21T18:02:03.064Z,100410.34
2023-05-21T18:04:31.955Z,100410.41
2023-05-21T18:07:02.079Z,100415.41
2023-05-21T18:09:30.848Z,100408.88
2023-05-21T18:12:00.072Z,100414.19
2023-05-21T18:14:29.351Z,100406.91
2023-05-21T18:16:59.320Z,100418.34
2023-05-21T18:19:33.161Z,100415.47
2023-05-21T18:22:08.640Z,100418.84
2023-05-21T18:24:40.030Z,100424.09
2023-05-21T18:27:08.265Z,100419.94
2023-05-21T18:29:37.787Z,100422.84
2023-05-21T18:32:06.856Z,100418.44
2023-05-21T18:34:36.398Z,100423.87
2023-05-21T18:37:05.066Z,100415.03
2023-05-21T18:39:33.428Z,100413.31
2023-05-21T18:42:12.772Z,100423.97
2023-05-21T18:44:41.815Z,100422.88
2023-05-21T18:47:09.921Z,100420.28
2023-05-21T18:49:39.483Z,100426.13
2023-05-21T18:52:08.155Z,100428.13
2023-05-21T18:54:36.557Z,100431.00
2023-05-21T18:57:05.040Z,100429.16
2023-05-21T18:59:33.524Z,100428.25
2023-05-21T19:02:01.757Z,100426.91
2023-05-21T19:04:29.983Z,100433.13
2023-05-21T19:07:00.126Z,100434.84
2023-05-21T19:09:28.182Z,100432.84
2023-05-21T19:11:56.549Z,100434.41
2023-05-21T19:14:24.773Z,100429.69
2023-05-21T19:16:55.280Z,100436.91
2023-05-21T19:19:23.629Z,100433.47
2023-05-21T19:21:52.891Z,100439.50
2023-05-21T19:24:22.333Z,100442.34
2023-05-21T19:26:50.602Z,100448.03
2023-05-21T19:29:19.024Z,100448.41
2023-05-21T19:31:47.256Z,100458.56
2023-05-21T19:34:15.760Z,100459.88
2023-05-21T19:36:53.066Z,100446.84
2023-05-21T19:39:23.462Z,100451.53
2023-05-21T19:41:52.876Z,100452.84
2023-05-21T19:44:21.048Z,100456.22
2023-05-21T19:46:49.941Z,100455.06
2023-05-21T19:49:19.967Z,100455.81
2023-05-21T19:51:49.496Z,100457.19
2023-05-21T19:54:18.516Z,100456.91
2023-05-21T19:56:48.216Z,100461.84
2023-05-21T19:59:16.461Z,100463.84
2023-05-21T20:01:45.093Z,100460.81
2023-05-21T20:04:14.128Z,100455.75
2023-05-21T20:06:42.398Z,100463.25
2023-05-21T20:09:13.277Z,100454.81
2023-05-21T20:11:42.233Z,100459.25
2023-05-21T20:14:11.681Z,100463.06
2023-05-21T20:16:39.782Z,100462.09
2023-05-21T20:19:11.201Z,100465.91
2023-05-21T20:21:39.499Z,100472.41
2023-05-21T20:24:08.807Z,100460.56
2023-05-21T20:26:39.992Z,100467.41
2023-05-21T20:29:08.542Z,100461.66
2023-05-21T20:31:37.914Z,100465.09
2023-05-21T20:34:07.678Z,100461.88
2023-05-21T20:36:36.560Z,100462.62
2023-05-21T20:39:06.258Z,100465.84
2023-05-21T20:41:36.234Z,100464.53
2023-05-21T20:44:06.815Z,100469.09
2023-05-21T20:46:38.286Z,100467.75
2023-05-21T20:49:09.737Z,100466.91
2023-05-21T20:51:38.028Z,100469.59
2023-05-21T20:54:06.761Z,100474.19
2023-05-21T20:56:42.026Z,100471.81
2023-05-21T20:59:12.080Z,100469.47
2023-05-21T21:01:40.820Z,100474.03
2023-05-21T21:04:11.433Z,100471.84
2023-05-21T21:06:40.429Z,100467.81
2023-05-21T21:09:09.271Z,100472.88
2023-05-21T21:11:37.325Z,100470.91
2023-05-21T21:14:05.689Z,100479.19
2023-05-21T21:16:33.824Z,100479.19
2023-05-21T21:19:02.188Z,100474.13
2023-05-21T21:21:32.389Z,100476.16
2023-05-21T21:24:00.555Z,100472.13
2023-05-21T21:26:28.641Z,100478.91
2023-05-21T21:28:57.043Z,100478.72
2023-05-21T21:31:25.261Z,100472.28
2023-05-21T21:33:53.421Z,100489.72
2023-05-21T21:36:21.906Z,100486.53
2023-05-21T21:38:51.424Z,100485.88
2023-05-21T21:41:20.372Z,100479.94
2023-05-21T21:43:48.656Z,100481.31
2023-05-21T21:46:16.919Z,100483.50
2023-05-21T21:48:45.286Z,100485.06
2023-05-21T21:51:15.594Z,100486.25
2023-05-21T21:53:44.250Z,100485.72
2023-05-21T21:56:13.706Z,100484.37
2023-05-21T21:58:42.233Z,100484.72
2023-05-21T22:01:10.333Z,100485.88
2023-05-21T22:03:38.850Z,100477.28
2023-05-21T22:06:07.231Z,100486.75
2023-05-21T22:08:37.885Z,100485.91
2023-05-21T22:11:06.601Z,100491.47
2023-05-21T22:13:36.116Z,100494.53
2023-05-21T22:16:05.392Z,100489.66
2023-05-21T22:18:41.031Z,100487.25
2023-05-21T22:21:14.431Z,100486.09
2023-05-21T22:23:43.113Z,100483.69
2023-05-21T22:26:11.375Z,100482.19
2023-05-21T22:28:40.963Z,100480.50
2023-05-21T22:31:09.604Z,100485.41
2023-05-21T22:33:37.778Z,100480.19
2023-05-21T22:36:06.635Z,100481.69
2023-05-21T22:38:35.219Z,100488.78
2023-05-21T22:41:03.640Z,100476.63
2023-05-21T22:43:31.995Z,100473.91
2023-05-21T22:46:02.386Z,100484.00
2023-05-21T22:48:31.541Z,100478.75
2023-05-21T22:51:01.875Z,100478.06
2023-05-21T22:53:32.025Z,100475.34
2023-05-21T22:56:03.192Z,100474.16
2023-05-21T22:58:33.460Z,100481.75
2023-05-21T23:01:03.219Z,100471.44
2023-05-21T23:03:31.680Z,100479.00
2023-05-21T23:06:03.045Z,100476.47
2023-05-21T23:08:31.409Z,100482.38
2023-05-21T23:10:59.552Z,100479.69
2023-05-21T23:13:27.536Z,100482.38
2023-05-21T23:15:58.794Z,100475.28
2023-05-21T23:18:28.526Z,100471.03
2023-05-21T23:20:57.254Z,100481.16
2023-05-21T23:23:25.516Z,100474.94
2023-05-21T23:25:57.604Z,100476.78
2023-05-21T23:28:26.813Z,100473.41
2023-05-21T23:30:54.950Z,100473.56
2023-05-21T23:33:23.312Z,100479.16
2023-05-21T23:35:52.942Z,100473.03
2023-05-21T23:38:21.503Z,100468.97
2023-05-21T23:40:49.716Z,100473.53
2023-05-21T23:43:18.217Z,100470.16
2023-05-21T23:45:46.633Z,100472.28
2023-05-21T23:48:14.946Z,100474.31
2023-05-21T23:50:43.476Z,100470.25
2023-05-21T23:53:12.891Z,100474.97
2023-05-21T23:55:41.152Z,100473.44
2023-05-21T23:58:21.818Z,100471.91
